createdAt,value
2018-10-02T00:00:47.736Z,99854.34
2018-10-02T00:03:16.519Z,99860.73
2018-10-02T00:05:46.091Z,99866.83
2018-10-02T00:08:14.851Z,99865.61
2018-10-02T00:10:47.760Z,99869.37
2018-10-02T00:13:22.562Z,99862.14
2018-10-02T00:15:51.351Z,99868.28
2018-10-02T00:22:08.863Z,99863.15
2018-10-02T00:28:10.788Z,99859.67
2018-10-02T00:30:39.736Z,99849.73
2018-10-02T00:33:09.472Z,99846.47
2018-10-02T00:35:39.426Z,99844.31
2018-10-02T00:38:08.445Z,99833.23
2018-10-02T00:40:38.331Z,99824.06
2018-10-02T00:43:08.228Z,99835.44
2018-10-02T00:45:38.840Z,99816.33
2018-10-02T00:48:08.771Z,99833.87
2018-10-02T00:50:38.434Z,99822.02
2018-10-02T00:53:08.942Z,99829.99
2018-10-02T00:55:38.550Z,99826.88
2018-10-02T00:58:08.328Z,99824.31
2018-10-02T01:00:38.657Z,99824.04
2018-10-02T01:03:08.572Z,99821.25
2018-10-02T01:05:37.471Z,99820.10
2018-10-02T01:08:06.335Z,99816.33
2018-10-02T01:10:36.333Z,99814.19
2018-10-02T01:13:05.788Z,99813.04
2018-10-02T01:15:34.539Z,99807.91
2018-10-02T01:18:03.348Z,99798.80
2018-10-02T01:20:32.768Z,99801.14
2018-10-02T01:23:02.291Z,99798.53
2018-10-02T01:25:31.980Z,99796.78
2018-10-02T01:28:00.836Z,99797.70
2018-10-02T01:30:31.279Z,99805.84
2018-10-02T01:33:00.023Z,99788.21
2018-10-02T01:35:28.857Z,99788.58
2018-10-02T01:37:57.655Z,99787.75
2018-10-02T01:40:26.406Z,99782.13
2018-10-02T01:42:55.850Z,99781.34
2018-10-02T01:45:25.825Z,99775.40
2018-10-02T01:47:55.614Z,99776.12
2018-10-02T01:50:24.667Z,99772.91
2018-10-02T01:52:54.135Z,99773.45
2018-10-02T01:55:23.457Z,99773.50
2018-10-02T01:57:52.326Z,99770.27
2018-10-02T02:00:21.948Z,99765.52
2018-10-02T02:02:50.696Z,99761.39
2018-10-02T02:05:19.544Z,99764.63
2018-10-02T02:07:49.126Z,99768.95
2018-10-02T02:10:17.914Z,99765.02
2018-10-02T02:12:47.264Z,99759.14
2018-10-02T02:15:16.106Z,99759.25
2018-10-02T02:17:44.927Z,99762.62
2018-10-02T02:20:14.658Z,99761.80
2018-10-02T02:22:44.317Z,99754.70
2018-10-02T02:25:13.110Z,99757.53
2018-10-02T02:27:41.917Z,99752.41
2018-10-02T02:30:11.709Z,99748.29
2018-10-02T02:32:40.599Z,99751.62
2018-10-02T02:35:10.252Z,99750.19
2018-10-02T02:37:39.307Z,99746.56
2018-10-02T02:40:08.489Z,99752.23
2018-10-02T02:42:38.331Z,99752.08
2018-10-02T02:45:08.105Z,99755.91
2018-10-02T02:47:42.032Z,99744.38
2018-10-02T02:50:16.208Z,99744.23
2018-10-02T02:52:50.653Z,99745.23
2018-10-02T02:55:19.521Z,99742.62
2018-10-02T02:57:48.295Z,99740.14
2018-10-02T03:00:18.123Z,99745.62
2018-10-02T03:02:46.990Z,99744.51
2018-10-02T03:05:19.512Z,99740.71
2018-10-02T03:07:48.311Z,99738.56
2018-10-02T03:10:17.311Z,99728.31
2018-10-02T03:12:46.504Z,99734.11
2018-10-02T03:15:15.303Z,99731.64
2018-10-02T03:17:44.093Z,99731.50
2018-10-02T03:20:13.680Z,99731.17
2018-10-02T03:22:43.044Z,99733.56
2018-10-02T03:25:11.860Z,99735.56
2018-10-02T03:27:40.688Z,99727.97
2018-10-02T03:30:09.551Z,99728.47
2018-10-02T03:32:38.463Z,99724.67
2018-10-02T03:35:08.306Z,99716.91
2018-10-02T03:37:38.541Z,99716.41
2018-10-02T03:40:09.759Z,99705.48
2018-10-02T03:42:39.703Z,99703.86
2018-10-02T03:45:10.027Z,99701.39
2018-10-02T03:47:39.080Z,99699.25
2018-10-02T03:50:08.431Z,99696.92
2018-10-02T03:52:38.208Z,99696.27
2018-10-02T03:55:08.257Z,99690.33
2018-10-02T03:57:37.505Z,99690.50
2018-10-02T04:00:08.279Z,99684.88
2018-10-02T04:02:37.452Z,99681.33
2018-10-02T04:05:06.971Z,99692.86
2018-10-02T04:07:35.889Z,99689.77
2018-10-02T04:10:04.719Z,99688.95
2018-10-02T04:12:34.052Z,99687.98
2018-10-02T04:15:02.827Z,99690.98
2018-10-02T04:17:31.596Z,99690.01
2018-10-02T04:20:01.959Z,99685.42
2018-10-02T04:22:31.892Z,99684.77
2018-10-02T04:25:00.656Z,99681.95
2018-10-02T04:27:29.867Z,99677.47
2018-10-02T04:29:58.680Z,99676.27
2018-10-02T04:32:27.435Z,99673.80
2018-10-02T04:34:56.419Z,99667.00
2018-10-02T04:37:26.031Z,99664.03
2018-10-02T04:39:58.203Z,99660.88
2018-10-02T04:42:27.794Z,99665.35
2018-10-02T04:44:57.472Z,99662.70
2018-10-02T04:47:26.264Z,99659.55
2018-10-02T04:49:55.237Z,99655.27
2018-10-02T04:52:24.702Z,99655.91
2018-10-02T04:54:53.567Z,99659.70
2018-10-02T04:57:22.422Z,99661.34
2018-10-02T04:59:51.996Z,99659.34
2018-10-02T05:02:21.438Z,99655.52
2018-10-02T05:04:50.314Z,99648.55
2018-10-02T05:07:19.147Z,99643.54
2018-10-02T05:09:47.961Z,99645.01
2018-10-02T05:12:17.841Z,99642.69
2018-10-02T05:14:46.635Z,99642.83
2018-10-02T05:17:15.469Z,99648.91
2018-10-02T05:19:45.008Z,99648.02
2018-10-02T05:22:14.763Z,99644.70
2018-10-02T05:24:44.267Z,99649.64
2018-10-02T05:27:15.405Z,99648.13
2018-10-02T05:29:44.126Z,99645.13
2018-10-02T05:32:12.943Z,99644.55
2018-10-02T05:34:42.323Z,99640.72
2018-10-02T05:37:11.129Z,99640.04
2018-10-02T05:39:40.488Z,99633.55
2018-10-02T05:42:19.115Z,99627.89
2018-10-02T05:44:49.220Z,99619.87
2018-10-02T05:47:18.000Z,99620.65
2018-10-02T05:49:46.780Z,99614.30
2018-10-02T05:52:16.044Z,99607.42
2018-10-02T05:54:44.801Z,99602.31
2018-10-02T05:57:13.876Z,99595.27
2018-10-02T06:00:14.249Z,99598.70
2018-10-02T06:02:43.126Z,99593.12
2018-10-02T06:05:13.093Z,99592.06
2018-10-02T06:07:41.980Z,99590.16
2018-10-02T06:10:11.788Z,99585.94
2018-10-02T06:12:41.153Z,99575.91
2018-10-02T06:15:10.195Z,99584.36
2018-10-02T06:17:39.703Z,99587.56
2018-10-02T06:20:10.229Z,99577.13
2018-10-02T06:22:39.990Z,99583.38
2018-10-02T06:25:09.487Z,99587.40
2018-10-02T06:27:38.588Z,99578.97
2018-10-02T06:30:08.221Z,99569.33
2018-10-02T06:32:38.795Z,99567.67
2018-10-02T06:35:08.000Z,99568.27
2018-10-02T06:37:36.886Z,99553.23
2018-10-02T06:40:06.529Z,99557.47
2018-10-02T06:42:36.383Z,99570.20
2018-10-02T06:45:12.208Z,99563.29
2018-10-02T06:47:41.140Z,99552.59
2018-10-02T06:50:11.212Z,99541.27
2018-10-02T06:52:41.168Z,99548.66
2018-10-02T06:55:10.431Z,99544.41
2018-10-02T06:57:40.092Z,99532.25
2018-10-02T07:00:20.024Z,99530.95
2018-10-02T07:02:48.979Z,99529.42
2018-10-02T07:05:19.246Z,99532.70
2018-10-02T07:07:48.745Z,99533.02
2018-10-02T07:10:17.515Z,99524.33
2018-10-02T07:12:46.988Z,99522.18
2018-10-02T07:15:15.900Z,99516.97
2018-10-02T07:17:44.781Z,99512.66
2018-10-02T07:20:15.037Z,99506.86
2018-10-02T07:22:44.491Z,99502.66
2018-10-02T07:25:13.284Z,99496.73
2018-10-02T07:27:42.231Z,99500.12
2018-10-02T07:30:12.160Z,99498.36
2018-10-02T07:32:41.114Z,99494.78
2018-10-02T07:35:10.699Z,99494.48
2018-10-02T07:37:40.608Z,99489.35
2018-10-02T07:40:09.633Z,99482.77
2018-10-02T07:42:39.351Z,99482.24
2018-10-02T07:45:09.245Z,99477.50
2018-10-02T07:47:39.476Z,99478.00
2018-10-02T07:50:08.513Z,99474.72
2018-10-02T07:52:38.659Z,99469.55
2018-10-02T07:55:09.103Z,99469.50
2018-10-02T07:57:38.068Z,99471.43
2018-10-02T08:00:08.147Z,99470.66
2018-10-02T08:02:41.087Z,99469.01
2018-10-02T08:05:11.183Z,99464.77
2018-10-02T08:07:40.297Z,99461.38
2018-10-02T08:10:09.388Z,99451.52
2018-10-02T08:12:39.103Z,99448.65
2018-10-02T08:15:08.293Z,99437.04
2018-10-02T08:17:37.858Z,99432.92
2018-10-02T08:20:07.338Z,99423.83
2018-10-02T08:22:37.135Z,99420.53
2018-10-02T08:25:06.628Z,99418.92
2018-10-02T08:27:35.867Z,99419.31
2018-10-02T08:30:04.799Z,99413.17
2018-10-02T08:32:34.658Z,99399.28
2018-10-02T08:35:03.500Z,99393.73
2018-10-02T08:37:32.320Z,99390.48
2018-10-02T08:40:01.177Z,99390.52
2018-10-02T08:42:30.768Z,99380.34
2018-10-02T08:45:00.729Z,99378.14
2018-10-02T08:47:29.663Z,99373.91
2018-10-02T08:49:58.409Z,99372.27
2018-10-02T08:52:27.607Z,99371.22
2018-10-02T08:54:57.005Z,99368.56
2018-10-02T08:57:25.956Z,99370.92
2018-10-02T08:59:55.844Z,99370.59
2018-10-02T09:02:24.676Z,99374.20
2018-10-02T09:04:53.490Z,99364.84
2018-10-02T09:07:22.411Z,99365.06
2018-10-02T09:09:51.196Z,99359.79
2018-10-02T09:12:20.569Z,99361.58
2018-10-02T09:14:49.332Z,99353.75
2018-10-02T09:17:18.104Z,99349.14
2018-10-02T09:19:47.657Z,99343.75
2018-10-02T09:22:17.311Z,99347.57
2018-10-02T09:24:46.733Z,99347.45
2018-10-02T09:27:15.619Z,99341.34
2018-10-02T09:29:49.496Z,99337.84
2018-10-02T09:34:26.021Z,99325.09
2018-10-02T09:37:00.186Z,99323.00
2018-10-02T09:39:34.239Z,99313.02
2018-10-02T09:42:09.085Z,99310.80
2018-10-02T09:44:39.792Z,99299.51
2018-10-02T09:47:10.035Z,99311.84
2018-10-02T09:49:39.044Z,99300.50
2018-10-02T09:52:08.548Z,99302.72
2018-10-02T09:54:37.452Z,99296.28
2018-10-02T09:57:06.591Z,99298.44
2018-10-02T09:59:35.951Z,99288.51
2018-10-02T10:02:09.836Z,99282.09
2018-10-02T10:04:40.256Z,99289.91
2018-10-02T10:07:10.209Z,99276.95
2018-10-02T10:09:40.192Z,99285.37
2018-10-02T10:12:10.541Z,99269.09
2018-10-02T10:14:40.283Z,99267.55
2018-10-02T10:17:09.444Z,99257.05
2018-10-02T10:19:38.957Z,99260.98
2018-10-02T10:22:08.673Z,99249.53
2018-10-02T10:24:38.227Z,99253.25
2018-10-02T10:27:08.092Z,99249.17
2018-10-02T10:29:36.913Z,99244.64
2018-10-02T10:32:05.848Z,99241.31
2018-10-02T10:34:34.780Z,99231.66
2018-10-02T10:37:03.751Z,99224.50
2018-10-02T10:39:33.963Z,99214.22
2018-10-02T10:42:03.419Z,99207.39
2018-10-02T10:44:33.144Z,99207.34
2018-10-02T10:47:02.850Z,99204.92
2018-10-02T10:49:31.917Z,99204.69
2018-10-02T10:52:01.516Z,99204.66
2018-10-02T10:54:30.364Z,99202.09
2018-10-02T10:56:59.179Z,99195.40
2018-10-02T10:59:28.580Z,99191.53
2018-10-02T11:01:57.416Z,99187.23
2018-10-02T11:04:26.461Z,99182.42
2018-10-02T11:06:55.297Z,99175.92
2018-10-02T11:09:24.741Z,99164.92
2018-10-02T11:11:54.823Z,99162.98
2018-10-02T11:14:23.868Z,99160.72
2018-10-02T11:16:52.708Z,99148.66
2018-10-02T11:19:21.602Z,99133.39
2018-10-02T11:21:51.099Z,99125.09
2018-10-02T11:24:20.496Z,99118.41
2018-10-02T11:26:49.276Z,99107.07
2018-10-02T11:29:18.165Z,99103.86
2018-10-02T11:31:47.059Z,99099.55
2018-10-02T11:34:15.869Z,99094.44
2018-10-02T11:36:44.787Z,99084.77
2018-10-02T11:39:13.638Z,99079.59
2018-10-02T11:41:42.541Z,99073.88
2018-10-02T11:44:11.941Z,99076.27
2018-10-02T11:46:41.277Z,99061.36
2018-10-02T11:49:10.565Z,99058.68
2018-10-02T11:51:40.656Z,99056.08
2018-10-02T11:54:09.602Z,99043.20
2018-10-02T11:56:38.633Z,99042.31
2018-10-02T11:59:08.585Z,99030.78
2018-10-02T12:01:38.476Z,99010.41
2018-10-02T12:04:07.995Z,99006.50
2018-10-02T12:06:37.022Z,98998.70
2018-10-02T12:09:08.572Z,99000.09
2018-10-02T12:11:39.500Z,98991.33
2018-10-02T12:14:09.918Z,98987.66
2018-10-02T12:16:40.399Z,98977.69
2018-10-02T12:19:10.001Z,98971.89
2018-10-02T12:21:41.277Z,98955.00
2018-10-02T12:24:10.904Z,98943.44
2018-10-02T12:26:39.830Z,98930.62
2018-10-02T12:29:09.300Z,98925.75
2018-10-02T12:31:39.261Z,98920.21
2018-10-02T12:34:08.401Z,98914.27
2018-10-02T12:36:38.558Z,98909.13
2018-10-02T12:39:08.582Z,98899.33
2018-10-02T12:41:38.792Z,98894.34
2018-10-02T12:44:08.592Z,98891.78
2018-10-02T12:46:39.411Z,98892.23
2018-10-02T12:49:08.728Z,98889.21
2018-10-02T12:51:38.701Z,98904.56
2018-10-02T12:54:08.226Z,98890.10
2018-10-02T12:56:37.554Z,98876.02
2018-10-02T12:59:07.502Z,98871.27
2018-10-02T13:01:36.868Z,98865.91
2018-10-02T13:04:06.021Z,98862.98
2018-10-02T13:06:34.966Z,98862.98
2018-10-02T13:09:05.520Z,98859.22
2018-10-02T13:11:34.884Z,98852.31
2018-10-02T13:14:03.712Z,98845.86
2018-10-02T13:16:33.951Z,98843.95
2018-10-02T13:19:02.718Z,98833.39
2018-10-02T13:21:32.253Z,98831.24
2018-10-02T13:24:01.624Z,98831.35
2018-10-02T13:26:30.449Z,98832.22
2018-10-02T13:28:59.409Z,98824.58
2018-10-02T13:31:28.449Z,98820.73
2018-10-02T13:33:57.212Z,98814.97
2018-10-02T13:36:26.378Z,98808.74
2018-10-02T13:38:55.434Z,98807.84
2018-10-02T13:41:24.531Z,98797.84
2018-10-02T13:43:54.329Z,98797.36
2018-10-02T13:46:24.810Z,98788.32
2018-10-02T13:48:53.652Z,98782.50
2018-10-02T13:51:22.905Z,98773.76
2018-10-02T13:53:51.708Z,98766.04
2018-10-02T13:56:20.647Z,98758.23
2018-10-02T13:58:50.198Z,98739.95
2018-10-02T14:01:26.078Z,98733.47
2018-10-02T14:03:55.683Z,98725.05
2018-10-02T14:06:24.621Z,98713.67
2018-10-02T14:08:53.539Z,98701.82
2018-10-02T14:11:23.985Z,98690.16
2018-10-02T14:13:53.486Z,98676.69
2018-10-02T14:16:22.491Z,98666.13
2018-10-02T14:18:51.249Z,98664.48
2018-10-02T14:21:20.964Z,98655.50
2018-10-02T14:23:50.273Z,98648.70
2018-10-02T14:26:19.132Z,98648.59
2018-10-02T14:28:47.975Z,98634.36
2018-10-02T14:31:16.829Z,98632.10
2018-10-02T14:33:45.656Z,98623.17
2018-10-02T14:36:14.545Z,98618.57
2018-10-02T14:38:44.099Z,98612.37
2018-10-02T14:41:12.976Z,98603.78
2018-10-02T14:43:42.267Z,98595.70
2018-10-02T14:46:11.520Z,98588.74
2018-10-02T14:48:41.034Z,98569.02
2018-10-02T14:51:10.775Z,98580.53
2018-10-02T14:53:40.234Z,98574.14
2018-10-02T14:56:09.437Z,98573.09
2018-10-02T14:58:39.076Z,98570.66
2018-10-02T15:01:14.872Z,98574.64
2018-10-02T15:03:43.660Z,98570.36
2018-10-02T15:06:12.745Z,98560.73
2018-10-02T15:08:41.568Z,98551.67
2018-10-02T15:11:11.396Z,98541.30
2018-10-02T15:13:40.416Z,98524.42
2018-10-02T15:16:09.997Z,98536.72
2018-10-02T15:18:39.087Z,98532.61
2018-10-02T15:21:09.589Z,98516.77
2018-10-02T15:23:40.043Z,98507.27
2018-10-02T15:26:09.370Z,98502.84
2018-10-02T15:28:38.670Z,98496.64
2018-10-02T15:31:08.594Z,98482.50
2018-10-02T15:33:37.546Z,98471.44
2018-10-02T15:36:06.735Z,98467.13
2018-10-02T15:38:35.705Z,98452.41
2018-10-02T15:41:04.568Z,98451.37
2018-10-02T15:43:34.497Z,98439.08
2018-10-02T15:46:03.954Z,98430.04
2018-10-02T15:48:33.459Z,98411.22
2018-10-02T15:51:02.375Z,98406.69
2018-10-02T15:53:31.960Z,98388.31
2018-10-02T15:56:31.464Z,98381.88
2018-10-02T15:59:01.190Z,98360.95
2018-10-02T16:01:30.533Z,98361.31
2018-10-02T16:03:59.679Z,98358.59
2018-10-02T16:06:29.473Z,98358.55
2018-10-02T16:08:58.966Z,98359.88
2018-10-02T16:11:28.384Z,98353.73
2018-10-02T16:13:57.367Z,98355.12
2018-10-02T16:16:26.464Z,98347.93
2018-10-02T16:18:55.584Z,98339.88
2018-10-02T16:21:26.335Z,98327.82
2018-10-02T16:23:55.962Z,98322.39
2018-10-02T16:26:25.739Z,98322.91
2018-10-02T16:28:55.678Z,98314.06
2018-10-02T16:31:26.127Z,98310.63
2018-10-02T16:33:55.609Z,98306.88
2018-10-02T16:36:25.248Z,98301.26
2018-10-02T16:38:54.411Z,98297.55
2018-10-02T16:41:23.479Z,98291.74
2018-10-02T16:43:52.933Z,98282.47
2018-10-02T16:46:22.580Z,98280.33
2018-10-02T16:48:51.407Z,98275.56
2018-10-02T16:51:20.975Z,98263.07
2018-10-02T16:53:49.778Z,98260.17
2018-10-02T16:56:18.696Z,98258.83
2018-10-02T16:58:48.083Z,98247.36
2018-10-02T17:01:17.435Z,98242.03
2018-10-02T17:03:46.299Z,98238.32
2018-10-02T17:06:16.648Z,98236.47
2018-10-02T17:08:45.419Z,98238.84
2018-10-02T17:11:14.947Z,98235.88
2018-10-02T17:13:44.476Z,98231.31
2018-10-02T17:16:13.886Z,98227.03
2018-10-02T17:18:42.843Z,98211.70
2018-10-02T17:21:12.756Z,98218.37
2018-10-02T17:23:41.943Z,98214.70
2018-10-02T17:26:11.822Z,98200.33
2018-10-02T17:28:41.544Z,98203.85
2018-10-02T17:31:10.576Z,98195.09
2018-10-02T17:33:39.824Z,98189.72
2018-10-02T17:36:11.172Z,98192.39
2018-10-02T17:38:40.216Z,98193.43
2018-10-02T17:41:10.217Z,98187.05
2018-10-02T17:43:41.404Z,98180.68
2018-10-02T17:46:11.019Z,98178.82
2018-10-02T17:48:40.046Z,98179.12
2018-10-02T17:51:10.145Z,98172.22
2018-10-02T17:53:40.501Z,98175.45
2018-10-02T17:56:09.545Z,98171.22
2018-10-02T17:58:39.230Z,98177.35
2018-10-02T18:01:08.837Z,98166.21
2018-10-02T18:03:38.447Z,98163.26
2018-10-02T18:06:07.500Z,98164.63
2018-10-02T18:08:37.467Z,98159.27
2018-10-02T18:11:08.245Z,98162.45
2018-10-02T18:13:37.324Z,98153.89
2018-10-02T18:16:06.920Z,98157.08
2018-10-02T18:18:37.973Z,98155.98
2018-10-02T18:21:08.369Z,98146.62
2018-10-02T18:23:38.581Z,98139.42
2018-10-02T18:26:07.914Z,98141.00
2018-10-02T18:28:37.320Z,98144.48
2018-10-02T18:31:06.358Z,98142.38
2018-10-02T18:33:35.147Z,98131.44
2018-10-02T18:36:04.268Z,98129.02
2018-10-02T18:38:33.221Z,98133.58
2018-10-02T18:41:08.230Z,98124.48
2018-10-02T18:43:37.865Z,98126.09
2018-10-02T18:46:08.245Z,98127.14
2018-10-02T18:48:38.384Z,98121.77
2018-10-02T18:51:10.314Z,98123.87
2018-10-02T18:53:40.105Z,98114.16
2018-10-02T18:56:11.568Z,98121.36
2018-10-02T18:58:41.800Z,98115.77
2018-10-02T19:01:11.295Z,98124.01
2018-10-02T19:03:41.062Z,98119.77
2018-10-02T19:06:09.988Z,98121.36
2018-10-02T19:08:44.518Z,98121.12
2018-10-02T19:11:19.993Z,98124.88
2018-10-02T19:13:48.744Z,98118.78
2018-10-02T19:16:22.693Z,98122.81
2018-10-02T19:18:51.520Z,98114.87
2018-10-02T19:21:21.027Z,98118.87
2018-10-02T19:23:50.330Z,98110.64
2018-10-02T19:26:20.846Z,98108.02
2018-10-02T19:28:49.936Z,98104.86
2018-10-02T19:31:23.984Z,98098.77
2018-10-02T19:33:53.436Z,98096.38
2018-10-02T19:36:22.848Z,98095.38
2018-10-02T19:38:59.184Z,98089.28
2018-10-02T19:41:29.355Z,98088.31
2018-10-02T19:43:58.732Z,98090.45
2018-10-02T19:46:31.614Z,98088.87
2018-10-02T19:49:00.463Z,98088.87
2018-10-02T19:52:40.567Z,98089.41
2018-10-02T19:55:09.784Z,98078.18
2018-10-02T19:57:40.065Z,98083.30
2018-10-02T20:00:10.768Z,98083.30
2018-10-02T20:02:41.375Z,98082.53
2018-10-02T20:05:10.759Z,98082.85
2018-10-02T20:07:39.797Z,98082.37
2018-10-02T20:10:09.535Z,98071.77
2018-10-02T20:12:40.070Z,98070.52
2018-10-02T20:15:08.869Z,98069.98
2018-10-02T20:17:38.740Z,98076.20
2018-10-02T20:20:09.763Z,98070.66
2018-10-02T20:22:39.230Z,98074.97
2018-10-02T20:25:08.784Z,98072.05
2018-10-02T20:27:38.227Z,98074.47
2018-10-02T20:30:08.268Z,98076.90
2018-10-02T20:32:38.068Z,98078.48
2018-10-02T20:35:06.953Z,98079.00
2018-10-02T20:37:36.553Z,98074.75
2018-10-02T20:40:05.352Z,98077.14
2018-10-02T20:42:34.888Z,98068.61
2018-10-02T20:45:03.735Z,98067.49
2018-10-02T20:47:33.127Z,98069.63
2018-10-02T20:50:01.940Z,98071.77
2018-10-02T20:52:31.404Z,98075.78
2018-10-02T20:55:00.252Z,98070.44
2018-10-02T20:57:29.740Z,98068.05
2018-10-02T20:59:59.086Z,98073.67
2018-10-02T21:02:28.501Z,98070.19
2018-10-02T21:04:57.277Z,98068.02
2018-10-02T21:07:26.209Z,98070.94
2018-10-02T21:09:56.244Z,98064.79
2018-10-02T21:12:26.500Z,98064.20
2018-10-02T21:14:59.639Z,98066.62
2018-10-02T21:17:33.089Z,98069.53
2018-10-02T21:20:02.906Z,98067.08
2018-10-02T21:22:32.796Z,98075.05
2018-10-02T21:25:01.677Z,98073.45
2018-10-02T21:27:30.450Z,98081.95
2018-10-02T21:29:59.867Z,98084.34
2018-10-02T21:32:29.301Z,98082.44
2018-10-02T21:34:58.080Z,98075.45
2018-10-02T21:37:26.899Z,98081.55
2018-10-02T21:40:02.361Z,98091.34
2018-10-02T21:42:31.965Z,98100.59
2018-10-02T21:45:01.142Z,98112.30
2018-10-02T21:47:29.932Z,98111.73
2018-10-02T21:49:58.873Z,98112.50
2018-10-02T21:52:28.173Z,98115.41
2018-10-02T21:54:58.195Z,98109.80
2018-10-02T21:57:27.003Z,98114.61
2018-10-02T21:59:56.586Z,98112.79
2018-10-02T22:02:26.039Z,98117.87
2018-10-02T22:04:55.380Z,98120.47
2018-10-02T22:07:24.337Z,98122.61
2018-10-02T22:09:53.491Z,98119.94
2018-10-02T22:12:22.729Z,98119.66
2018-10-02T22:14:51.545Z,98126.64
2018-10-02T22:17:20.329Z,98126.97
2018-10-02T22:19:50.024Z,98132.58
2018-10-02T22:22:19.455Z,98133.68
2018-10-02T22:24:49.209Z,98133.72
2018-10-02T22:27:17.971Z,98132.95
2018-10-02T22:29:46.724Z,98142.04
2018-10-02T22:32:15.527Z,98139.34
2018-10-02T22:34:44.629Z,98142.33
2018-10-02T22:37:13.599Z,98138.33
2018-10-02T22:39:42.422Z,98145.84
2018-10-02T22:42:11.796Z,98158.89
2018-10-02T22:44:40.641Z,98158.56
2018-10-02T22:47:10.253Z,98167.53
2018-10-02T22:49:39.993Z,98159.77
2018-10-02T22:52:09.260Z,98165.50
2018-10-02T22:54:38.884Z,98175.30
2018-10-02T22:57:07.776Z,98176.26
2018-10-02T22:59:38.851Z,98176.22
2018-10-02T23:02:08.654Z,98178.58
2018-10-02T23:04:38.666Z,98188.91
2018-10-02T23:07:07.711Z,98187.43
2018-10-02T23:09:36.529Z,98204.86
2018-10-02T23:12:05.959Z,98203.43
2018-10-02T23:14:34.690Z,98209.73
2018-10-02T23:17:03.490Z,98216.53
2018-10-02T23:19:32.383Z,98221.55
2018-10-02T23:22:01.744Z,98228.40
2018-10-02T23:24:30.988Z,98232.86
2018-10-02T23:26:59.768Z,98233.85
2018-10-02T23:29:28.546Z,98240.52
2018-10-02T23:31:57.337Z,98241.25
2018-10-02T23:34:26.261Z,98245.48
2018-10-02T23:37:00.118Z,98250.45
2018-10-02T23:39:28.986Z,98254.69
2018-10-02T23:41:58.634Z,98255.20
2018-10-02T23:44:27.400Z,98273.84
2018-10-02T23:46:56.651Z,98280.09
2018-10-02T23:49:26.940Z,98278.58
2018-10-02T23:51:57.375Z,98288.99
2018-10-02T23:54:26.645Z,98301.75
2018-10-02T23:56:55.521Z,98310.70
2018-10-02T23:59:25.015Z,98318.87
